sensor_id;sensor_type;location;lat;lon;timestamp;P1;durP1;ratioP1;P2;durP2;ratioP2
3081;SDS011;1551;51.046;7.010;2023-05-02T00:01:56;14.77;;;12.52;;
3081;SDS011;1551;51.046;7.010;2023-05-02T00:04:45;13.60;;;12.40;;
3081;SDS011;1551;51.046;7.010;2023-05-02T00:07:35;12.73;;;11.40;;
3081;SDS011;1551;51.046;7.010;2023-05-02T00:10:24;14.38;;;12.88;;
3081;SDS011;1551;51.046;7.010;2023-05-02T00:13:13;13.45;;;12.25;;
3081;SDS011;1551;51.046;7.010;2023-05-02T00:16:02;15.57;;;13.37;;
3081;SDS011;1551;51.046;7.010;2023-05-02T00:18:52;14.80;;;12.43;;
3081;SDS011;1551;51.046;7.010;2023-05-02T00:21:41;13.13;;;11.93;;
3081;SDS011;1551;51.046;7.010;2023-05-02T00:24:30;15.55;;;12.40;;
3081;SDS011;1551;51.046;7.010;2023-05-02T00:27:19;13.10;;;11.80;;
3081;SDS011;1551;51.046;7.010;2023-05-02T00:30:08;15.32;;;13.43;;
3081;SDS011;1551;51.046;7.010;2023-05-02T00:32:57;14.63;;;13.13;;
3081;SDS011;1551;51.046;7.010;2023-05-02T00:35:46;14.60;;;13.18;;
3081;SDS011;1551;51.046;7.010;2023-05-02T00:38:35;15.20;;;13.80;;
3081;SDS011;1551;51.046;7.010;2023-05-02T00:41:24;15.00;;;13.57;;
3081;SDS011;1551;51.046;7.010;2023-05-02T00:44:13;15.40;;;13.90;;
3081;SDS011;1551;51.046;7.010;2023-05-02T00:47:02;18.92;;;16.92;;
3081;SDS011;1551;51.046;7.010;2023-05-02T00:49:52;20.13;;;18.05;;
3081;SDS011;1551;51.046;7.010;2023-05-02T00:52:41;20.80;;;18.55;;
3081;SDS011;1551;51.046;7.010;2023-05-02T00:55:30;21.00;;;18.98;;
3081;SDS011;1551;51.046;7.010;2023-05-02T00:58:21;24.00;;;21.60;;
3081;SDS011;1551;51.046;7.010;2023-05-02T01:10:47;29.65;;;26.42;;
3081;SDS011;1551;51.046;7.010;2023-05-02T01:13:37;30.48;;;27.15;;
3081;SDS011;1551;51.046;7.010;2023-05-02T01:16:27;31.67;;;27.02;;
3081;SDS011;1551;51.046;7.010;2023-05-02T01:19:21;31.38;;;27.48;;
3081;SDS011;1551;51.046;7.010;2023-05-02T01:22:16;34.63;;;27.75;;
3081;SDS011;1551;51.046;7.010;2023-05-02T01:28:15;35.85;;;28.85;;
3081;SDS011;1551;51.046;7.010;2023-05-02T01:31:17;33.73;;;29.90;;
3081;SDS011;1551;51.046;7.010;2023-05-02T01:34:07;32.30;;;28.80;;
3081;SDS011;1551;51.046;7.010;2023-05-02T01:36:58;34.63;;;29.17;;
3081;SDS011;1551;51.046;7.010;2023-05-02T01:39:50;35.70;;;29.98;;
3081;SDS011;1551;51.046;7.010;2023-05-02T01:42:41;33.93;;;29.10;;
3081;SDS011;1551;51.046;7.010;2023-05-02T01:45:32;35.38;;;30.73;;
3081;SDS011;1551;51.046;7.010;2023-05-02T01:48:23;40.95;;;30.77;;
3081;SDS011;1551;51.046;7.010;2023-05-02T01:51:16;36.05;;;29.63;;
3081;SDS011;1551;51.046;7.010;2023-05-02T01:54:07;32.90;;;28.55;;
3081;SDS011;1551;51.046;7.010;2023-05-02T01:56:57;37.08;;;30.80;;
3081;SDS011;1551;51.046;7.010;2023-05-02T01:59:48;42.15;;;32.15;;
3081;SDS011;1551;51.046;7.010;2023-05-02T02:02:40;38.55;;;30.30;;
3081;SDS011;1551;51.046;7.010;2023-05-02T02:05:31;39.20;;;29.80;;
3081;SDS011;1551;51.046;7.010;2023-05-02T02:08:22;41.40;;;32.05;;
3081;SDS011;1551;51.046;7.010;2023-05-02T02:11:14;38.80;;;30.55;;
3081;SDS011;1551;51.046;7.010;2023-05-02T02:14:06;38.75;;;30.17;;
3081;SDS011;1551;51.046;7.010;2023-05-02T02:17:04;37.28;;;29.25;;
3081;SDS011;1551;51.046;7.010;2023-05-02T02:20:02;40.58;;;30.67;;
3081;SDS011;1551;51.046;7.010;2023-05-02T02:22:55;40.50;;;30.93;;
3081;SDS011;1551;51.046;7.010;2023-05-02T02:25:45;41.20;;;30.10;;
3081;SDS011;1551;51.046;7.010;2023-05-02T02:28:34;43.90;;;31.63;;
3081;SDS011;1551;51.046;7.010;2023-05-02T02:31:28;41.00;;;31.88;;
3081;SDS011;1551;51.046;7.010;2023-05-02T02:34:18;41.90;;;31.42;;
3081;SDS011;1551;51.046;7.010;2023-05-02T02:37:15;40.60;;;30.30;;
3081;SDS011;1551;51.046;7.010;2023-05-02T02:46:19;38.78;;;29.48;;
3081;SDS011;1551;51.046;7.010;2023-05-02T02:49:26;40.17;;;29.77;;
3081;SDS011;1551;51.046;7.010;2023-05-02T02:58:24;40.00;;;29.00;;
3081;SDS011;1551;51.046;7.010;2023-05-02T03:01:24;38.45;;;28.52;;
3081;SDS011;1551;51.046;7.010;2023-05-02T03:04:15;38.00;;;28.85;;
3081;SDS011;1551;51.046;7.010;2023-05-02T03:07:07;39.90;;;28.80;;
3081;SDS011;1551;51.046;7.010;2023-05-02T03:09:56;38.00;;;28.42;;
3081;SDS011;1551;51.046;7.010;2023-05-02T03:12:47;37.23;;;28.47;;
3081;SDS011;1551;51.046;7.010;2023-05-02T03:18:47;40.90;;;29.60;;
3081;SDS011;1551;51.046;7.010;2023-05-02T03:21:36;36.33;;;26.65;;
3081;SDS011;1551;51.046;7.010;2023-05-02T03:24:32;38.58;;;27.10;;
3081;SDS011;1551;51.046;7.010;2023-05-02T03:27:21;38.20;;;28.63;;
3081;SDS011;1551;51.046;7.010;2023-05-02T03:30:11;38.17;;;28.52;;
3081;SDS011;1551;51.046;7.010;2023-05-02T03:32:59;35.80;;;27.85;;
3081;SDS011;1551;51.046;7.010;2023-05-02T03:35:49;38.47;;;28.05;;
3081;SDS011;1551;51.046;7.010;2023-05-02T03:38:38;37.78;;;27.25;;
3081;SDS011;1551;51.046;7.010;2023-05-02T03:41:30;40.00;;;28.60;;
3081;SDS011;1551;51.046;7.010;2023-05-02T03:44:26;38.40;;;26.90;;
3081;SDS011;1551;51.046;7.010;2023-05-02T03:47:15;35.45;;;26.30;;
3081;SDS011;1551;51.046;7.010;2023-05-02T03:50:06;38.40;;;27.35;;
3081;SDS011;1551;51.046;7.010;2023-05-02T03:52:56;43.17;;;29.48;;
3081;SDS011;1551;51.046;7.010;2023-05-02T03:55:55;36.00;;;26.35;;
3081;SDS011;1551;51.046;7.010;2023-05-02T03:58:53;39.40;;;27.37;;
3081;SDS011;1551;51.046;7.010;2023-05-02T04:01:49;36.15;;;26.42;;
3081;SDS011;1551;51.046;7.010;2023-05-02T04:04:40;36.03;;;27.35;;
3081;SDS011;1551;51.046;7.010;2023-05-02T04:07:33;43.15;;;28.27;;
3081;SDS011;1551;51.046;7.010;2023-05-02T04:10:26;36.72;;;27.00;;
3081;SDS011;1551;51.046;7.010;2023-05-02T04:13:19;38.15;;;28.25;;
3081;SDS011;1551;51.046;7.010;2023-05-02T04:16:11;36.08;;;27.23;;
3081;SDS011;1551;51.046;7.010;2023-05-02T04:19:01;38.72;;;27.92;;
3081;SDS011;1551;51.046;7.010;2023-05-02T04:21:50;35.33;;;27.52;;
3081;SDS011;1551;51.046;7.010;2023-05-02T04:24:40;38.73;;;27.83;;
3081;SDS011;1551;51.046;7.010;2023-05-02T04:27:29;37.40;;;28.80;;
3081;SDS011;1551;51.046;7.010;2023-05-02T04:30:19;36.77;;;27.97;;
3081;SDS011;1551;51.046;7.010;2023-05-02T04:33:18;38.28;;;27.15;;
3081;SDS011;1551;51.046;7.010;2023-05-02T04:36:08;33.63;;;26.20;;
3081;SDS011;1551;51.046;7.010;2023-05-02T04:38:58;37.05;;;27.35;;
3081;SDS011;1551;51.046;7.010;2023-05-02T04:41:48;37.13;;;27.05;;
3081;SDS011;1551;51.046;7.010;2023-05-02T04:44:37;40.25;;;26.48;;
3081;SDS011;1551;51.046;7.010;2023-05-02T04:47:26;34.25;;;26.20;;
3081;SDS011;1551;51.046;7.010;2023-05-02T04:50:15;35.92;;;26.25;;
3081;SDS011;1551;51.046;7.010;2023-05-02T04:53:04;34.35;;;25.05;;
3081;SDS011;1551;51.046;7.010;2023-05-02T04:55:54;35.03;;;25.05;;
3081;SDS011;1551;51.046;7.010;2023-05-02T04:58:45;35.40;;;25.90;;
3081;SDS011;1551;51.046;7.010;2023-05-02T05:01:35;36.65;;;25.98;;
3081;SDS011;1551;51.046;7.010;2023-05-02T05:04:25;36.03;;;24.80;;
3081;SDS011;1551;51.046;7.010;2023-05-02T05:07:14;32.58;;;22.85;;
3081;SDS011;1551;51.046;7.010;2023-05-02T05:10:06;33.42;;;24.27;;
3081;SDS011;1551;51.046;7.010;2023-05-02T05:13:03;34.97;;;24.23;;
3081;SDS011;1551;51.046;7.010;2023-05-02T05:15:54;34.80;;;24.08;;
3081;SDS011;1551;51.046;7.010;2023-05-02T05:18:48;33.45;;;23.33;;
3081;SDS011;1551;51.046;7.010;2023-05-02T05:21:37;34.33;;;23.90;;
3081;SDS011;1551;51.046;7.010;2023-05-02T05:24:27;32.20;;;22.83;;
3081;SDS011;1551;51.046;7.010;2023-05-02T05:27:18;31.93;;;22.50;;
3081;SDS011;1551;51.046;7.010;2023-05-02T05:30:09;30.58;;;22.70;;
3081;SDS011;1551;51.046;7.010;2023-05-02T05:32:59;29.67;;;21.30;;
3081;SDS011;1551;51.046;7.010;2023-05-02T05:35:48;30.55;;;21.08;;
3081;SDS011;1551;51.046;7.010;2023-05-02T05:38:37;32.72;;;21.52;;
3081;SDS011;1551;51.046;7.010;2023-05-02T05:41:30;32.35;;;21.13;;
3081;SDS011;1551;51.046;7.010;2023-05-02T05:44:25;31.83;;;21.83;;
3081;SDS011;1551;51.046;7.010;2023-05-02T05:47:18;29.75;;;19.35;;
3081;SDS011;1551;51.046;7.010;2023-05-02T05:50:10;26.02;;;19.02;;
3081;SDS011;1551;51.046;7.010;2023-05-02T05:53:00;30.10;;;19.25;;
3081;SDS011;1551;51.046;7.010;2023-05-02T05:55:49;26.02;;;19.30;;
3081;SDS011;1551;51.046;7.010;2023-05-02T05:58:40;25.15;;;18.30;;
3081;SDS011;1551;51.046;7.010;2023-05-02T06:01:32;28.38;;;19.40;;
3081;SDS011;1551;51.046;7.010;2023-05-02T06:04:24;28.17;;;19.80;;
3081;SDS011;1551;51.046;7.010;2023-05-02T06:07:15;26.58;;;19.00;;
3081;SDS011;1551;51.046;7.010;2023-05-02T06:10:04;25.67;;;18.73;;
3081;SDS011;1551;51.046;7.010;2023-05-02T06:12:56;24.73;;;18.60;;
3081;SDS011;1551;51.046;7.010;2023-05-02T06:15:50;30.17;;;19.48;;
3081;SDS011;1551;51.046;7.010;2023-05-02T06:18:38;27.98;;;19.30;;
3081;SDS011;1551;51.046;7.010;2023-05-02T06:21:29;29.97;;;19.33;;
3081;SDS011;1551;51.046;7.010;2023-05-02T06:24:19;31.20;;;20.00;;
3081;SDS011;1551;51.046;7.010;2023-05-02T06:27:08;24.75;;;17.95;;
3081;SDS011;1551;51.046;7.010;2023-05-02T06:29:56;26.75;;;19.40;;
3081;SDS011;1551;51.046;7.010;2023-05-02T06:32:45;26.58;;;19.00;;
3081;SDS011;1551;51.046;7.010;2023-05-02T06:35:34;28.48;;;19.17;;
3081;SDS011;1551;51.046;7.010;2023-05-02T06:38:23;26.20;;;18.67;;
3081;SDS011;1551;51.046;7.010;2023-05-02T06:41:13;29.77;;;19.27;;
3081;SDS011;1551;51.046;7.010;2023-05-02T06:44:02;23.70;;;18.42;;
3081;SDS011;1551;51.046;7.010;2023-05-02T06:46:51;30.67;;;20.13;;
3081;SDS011;1551;51.046;7.010;2023-05-02T06:49:40;29.85;;;20.08;;
3081;SDS011;1551;51.046;7.010;2023-05-02T06:52:29;27.88;;;18.27;;
3081;SDS011;1551;51.046;7.010;2023-05-02T06:55:18;25.30;;;19.17;;
3081;SDS011;1551;51.046;7.010;2023-05-02T06:58:07;28.30;;;18.70;;
3081;SDS011;1551;51.046;7.010;2023-05-02T07:00:56;25.80;;;19.50;;
3081;SDS011;1551;51.046;7.010;2023-05-02T07:03:45;22.88;;;16.95;;
3081;SDS011;1551;51.046;7.010;2023-05-02T07:06:34;21.85;;;17.27;;
3081;SDS011;1551;51.046;7.010;2023-05-02T07:09:23;23.25;;;19.15;;
3081;SDS011;1551;51.046;7.010;2023-05-02T07:12:12;18.75;;;15.23;;
3081;SDS011;1551;51.046;7.010;2023-05-02T07:15:01;17.08;;;14.52;;
3081;SDS011;1551;51.046;7.010;2023-05-02T07:17:50;18.40;;;13.50;;
3081;SDS011;1551;51.046;7.010;2023-05-02T07:20:39;17.92;;;13.80;;
3081;SDS011;1551;51.046;7.010;2023-05-02T07:23:30;15.05;;;10.60;;
3081;SDS011;1551;51.046;7.010;2023-05-02T07:26:18;12.57;;;8.73;;
3081;SDS011;1551;51.046;7.010;2023-05-02T07:29:08;10.35;;;7.75;;
3081;SDS011;1551;51.046;7.010;2023-05-02T07:31:57;14.80;;;7.80;;
3081;SDS011;1551;51.046;7.010;2023-05-02T07:34:47;9.77;;;6.70;;
3081;SDS011;1551;51.046;7.010;2023-05-02T07:37:36;10.10;;;7.60;;
3081;SDS011;1551;51.046;7.010;2023-05-02T07:40:25;8.35;;;6.75;;
3081;SDS011;1551;51.046;7.010;2023-05-02T07:43:14;10.27;;;6.60;;
3081;SDS011;1551;51.046;7.010;2023-05-02T07:46:04;7.30;;;5.45;;
3081;SDS011;1551;51.046;7.010;2023-05-02T07:48:54;9.20;;;6.68;;
3081;SDS011;1551;51.046;7.010;2023-05-02T07:51:43;8.38;;;5.22;;
3081;SDS011;1551;51.046;7.010;2023-05-02T07:54:33;7.40;;;5.32;;
3081;SDS011;1551;51.046;7.010;2023-05-02T07:57:24;7.53;;;5.13;;
3081;SDS011;1551;51.046;7.010;2023-05-02T08:00:14;8.98;;;5.53;;
3081;SDS011;1551;51.046;7.010;2023-05-02T08:03:03;9.32;;;5.30;;
3081;SDS011;1551;51.046;7.010;2023-05-02T08:05:53;8.20;;;5.63;;
3081;SDS011;1551;51.046;7.010;2023-05-02T08:08:42;8.27;;;5.72;;
3081;SDS011;1551;51.046;7.010;2023-05-02T08:11:31;8.27;;;6.50;;
3081;SDS011;1551;51.046;7.010;2023-05-02T08:14:20;9.98;;;7.35;;
3081;SDS011;1551;51.046;7.010;2023-05-02T08:17:10;11.10;;;8.32;;
3081;SDS011;1551;51.046;7.010;2023-05-02T08:19:59;8.85;;;7.30;;
3081;SDS011;1551;51.046;7.010;2023-05-02T08:22:49;10.38;;;8.52;;
3081;SDS011;1551;51.046;7.010;2023-05-02T08:25:39;10.13;;;8.15;;
3081;SDS011;1551;51.046;7.010;2023-05-02T08:28:28;11.57;;;8.70;;
3081;SDS011;1551;51.046;7.010;2023-05-02T08:31:18;9.90;;;8.40;;
3081;SDS011;1551;51.046;7.010;2023-05-02T08:34:07;12.13;;;9.10;;
3081;SDS011;1551;51.046;7.010;2023-05-02T08:36:56;11.20;;;8.18;;
3081;SDS011;1551;51.046;7.010;2023-05-02T08:39:45;11.05;;;7.90;;
3081;SDS011;1551;51.046;7.010;2023-05-02T08:42:34;11.63;;;7.90;;
3081;SDS011;1551;51.046;7.010;2023-05-02T08:45:23;12.65;;;8.40;;
3081;SDS011;1551;51.046;7.010;2023-05-02T08:48:12;12.00;;;8.00;;
3081;SDS011;1551;51.046;7.010;2023-05-02T08:51:07;11.43;;;9.30;;
3081;SDS011;1551;51.046;7.010;2023-05-02T08:53:57;10.90;;;9.17;;
3081;SDS011;1551;51.046;7.010;2023-05-02T08:56:47;8.77;;;6.22;;
3081;SDS011;1551;51.046;7.010;2023-05-02T08:59:36;8.45;;;4.53;;
3081;SDS011;1551;51.046;7.010;2023-05-02T09:02:38;5.50;;;4.13;;
3081;SDS011;1551;51.046;7.010;2023-05-02T09:05:45;5.70;;;3.70;;
3081;SDS011;1551;51.046;7.010;2023-05-02T09:08:41;5.38;;;2.83;;
3081;SDS011;1551;51.046;7.010;2023-05-02T09:11:31;5.00;;;3.05;;
3081;SDS011;1551;51.046;7.010;2023-05-02T09:14:20;6.47;;;3.30;;
3081;SDS011;1551;51.046;7.010;2023-05-02T09:17:09;5.50;;;3.57;;
3081;SDS011;1551;51.046;7.010;2023-05-02T09:19:59;4.90;;;3.17;;
3081;SDS011;1551;51.046;7.010;2023-05-02T09:22:49;6.22;;;3.78;;
3081;SDS011;1551;51.046;7.010;2023-05-02T09:25:39;6.03;;;3.78;;
3081;SDS011;1551;51.046;7.010;2023-05-02T09:28:45;7.47;;;4.33;;
3081;SDS011;1551;51.046;7.010;2023-05-02T09:31:38;6.22;;;4.57;;
3081;SDS011;1551;51.046;7.010;2023-05-02T09:34:29;7.38;;;4.40;;
3081;SDS011;1551;51.046;7.010;2023-05-02T09:37:34;7.82;;;5.25;;
3081;SDS011;1551;51.046;7.010;2023-05-02T09:40:23;6.80;;;5.75;;
3081;SDS011;1551;51.046;7.010;2023-05-02T09:43:13;8.27;;;5.85;;
3081;SDS011;1551;51.046;7.010;2023-05-02T09:46:09;9.88;;;6.20;;
3081;SDS011;1551;51.046;7.010;2023-05-02T09:48:59;7.00;;;6.30;;
3081;SDS011;1551;51.046;7.010;2023-05-02T09:51:48;8.70;;;6.57;;
3081;SDS011;1551;51.046;7.010;2023-05-02T09:54:37;10.63;;;8.38;;
3081;SDS011;1551;51.046;7.010;2023-05-02T09:57:45;8.32;;;6.50;;
3081;SDS011;1551;51.046;7.010;2023-05-02T10:00:43;9.15;;;7.57;;
3081;SDS011;1551;51.046;7.010;2023-05-02T10:03:35;10.88;;;8.00;;
3081;SDS011;1551;51.046;7.010;2023-05-02T10:06:26;9.20;;;7.43;;
3081;SDS011;1551;51.046;7.010;2023-05-02T10:09:16;11.48;;;9.07;;
3081;SDS011;1551;51.046;7.010;2023-05-02T10:12:07;8.77;;;7.15;;
3081;SDS011;1551;51.046;7.010;2023-05-02T10:14:59;7.10;;;6.15;;
3081;SDS011;1551;51.046;7.010;2023-05-02T10:17:50;8.40;;;6.20;;
3081;SDS011;1551;51.046;7.010;2023-05-02T10:20:42;4.88;;;3.83;;
3081;SDS011;1551;51.046;7.010;2023-05-02T10:23:41;8.63;;;4.00;;
3081;SDS011;1551;51.046;7.010;2023-05-02T10:26:33;5.65;;;4.00;;
3081;SDS011;1551;51.046;7.010;2023-05-02T10:29:27;5.97;;;4.72;;
3081;SDS011;1551;51.046;7.010;2023-05-02T10:32:17;6.22;;;4.78;;
3081;SDS011;1551;51.046;7.010;2023-05-02T10:35:06;6.05;;;4.72;;
3081;SDS011;1551;51.046;7.010;2023-05-02T10:37:55;6.90;;;5.00;;
3081;SDS011;1551;51.046;7.010;2023-05-02T10:40:48;7.18;;;6.10;;
3081;SDS011;1551;51.046;7.010;2023-05-02T10:43:47;8.60;;;5.60;;
3081;SDS011;1551;51.046;7.010;2023-05-02T10:46:37;7.05;;;4.80;;
3081;SDS011;1551;51.046;7.010;2023-05-02T10:49:30;6.20;;;3.70;;
3081;SDS011;1551;51.046;7.010;2023-05-02T10:55:20;6.03;;;2.50;;
3081;SDS011;1551;51.046;7.010;2023-05-02T10:58:20;3.70;;;2.58;;
3081;SDS011;1551;51.046;7.010;2023-05-02T11:04:17;4.72;;;2.70;;
3081;SDS011;1551;51.046;7.010;2023-05-02T11:13:03;6.25;;;2.88;;
3081;SDS011;1551;51.046;7.010;2023-05-02T11:18:56;5.95;;;4.30;;
3081;SDS011;1551;51.046;7.010;2023-05-02T11:21:46;6.00;;;4.90;;
3081;SDS011;1551;51.046;7.010;2023-05-02T11:24:41;6.57;;;4.30;;
3081;SDS011;1551;51.046;7.010;2023-05-02T11:27:37;5.53;;;4.70;;
3081;SDS011;1551;51.046;7.010;2023-05-02T11:30:37;6.67;;;4.60;;
3081;SDS011;1551;51.046;7.010;2023-05-02T11:33:27;7.00;;;4.22;;
3081;SDS011;1551;51.046;7.010;2023-05-02T11:36:26;5.28;;;4.25;;
3081;SDS011;1551;51.046;7.010;2023-05-02T11:39:18;6.25;;;3.78;;
3081;SDS011;1551;51.046;7.010;2023-05-02T11:42:08;6.05;;;4.25;;
3081;SDS011;1551;51.046;7.010;2023-05-02T11:44:58;6.75;;;4.40;;
3081;SDS011;1551;51.046;7.010;2023-05-02T11:47:49;6.00;;;4.00;;
3081;SDS011;1551;51.046;7.010;2023-05-02T11:50:42;9.63;;;4.50;;
3081;SDS011;1551;51.046;7.010;2023-05-02T11:53:33;5.28;;;3.80;;
3081;SDS011;1551;51.046;7.010;2023-05-02T11:56:28;7.30;;;4.70;;
3081;SDS011;1551;51.046;7.010;2023-05-02T11:59:17;5.30;;;4.20;;
3081;SDS011;1551;51.046;7.010;2023-05-02T12:02:06;5.30;;;3.67;;
3081;SDS011;1551;51.046;7.010;2023-05-02T12:04:55;8.40;;;4.45;;
3081;SDS011;1551;51.046;7.010;2023-05-02T12:07:44;7.07;;;4.03;;
3081;SDS011;1551;51.046;7.010;2023-05-02T12:10:35;8.07;;;4.63;;
3081;SDS011;1551;51.046;7.010;2023-05-02T12:13:25;9.55;;;4.50;;
3081;SDS011;1551;51.046;7.010;2023-05-02T12:16:15;8.05;;;4.47;;
3081;SDS011;1551;51.046;7.010;2023-05-02T12:19:05;6.20;;;3.95;;
3081;SDS011;1551;51.046;7.010;2023-05-02T12:21:54;7.13;;;4.55;;
3081;SDS011;1551;51.046;7.010;2023-05-02T12:24:44;9.68;;;4.30;;
3081;SDS011;1551;51.046;7.010;2023-05-02T12:27:34;6.40;;;4.40;;
3081;SDS011;1551;51.046;7.010;2023-05-02T12:30:27;6.03;;;5.00;;
3081;SDS011;1551;51.046;7.010;2023-05-02T12:33:17;8.13;;;5.10;;
3081;SDS011;1551;51.046;7.010;2023-05-02T12:36:07;5.00;;;4.50;;
3081;SDS011;1551;51.046;7.010;2023-05-02T12:38:57;6.85;;;4.60;;
3081;SDS011;1551;51.046;7.010;2023-05-02T12:41:47;8.10;;;5.70;;
3081;SDS011;1551;51.046;7.010;2023-05-02T12:44:37;7.95;;;5.57;;
3081;SDS011;1551;51.046;7.010;2023-05-02T12:47:30;6.40;;;5.18;;
3081;SDS011;1551;51.046;7.010;2023-05-02T12:50:36;6.40;;;5.38;;
3081;SDS011;1551;51.046;7.010;2023-05-02T12:53:41;9.50;;;6.20;;
3081;SDS011;1551;51.046;7.010;2023-05-02T12:56:38;8.45;;;5.65;;
3081;SDS011;1551;51.046;7.010;2023-05-02T12:59:29;10.40;;;6.50;;
3081;SDS011;1551;51.046;7.010;2023-05-02T13:02:20;11.80;;;6.17;;
3081;SDS011;1551;51.046;7.010;2023-05-02T13:05:13;8.07;;;6.37;;
3081;SDS011;1551;51.046;7.010;2023-05-02T13:08:03;8.10;;;6.20;;
3081;SDS011;1551;51.046;7.010;2023-05-02T13:10:52;7.82;;;5.65;;
3081;SDS011;1551;51.046;7.010;2023-05-02T13:13:41;11.23;;;7.55;;
3081;SDS011;1551;51.046;7.010;2023-05-02T13:16:30;9.98;;;6.85;;
3081;SDS011;1551;51.046;7.010;2023-05-02T13:19:21;15.85;;;6.00;;
3081;SDS011;1551;51.046;7.010;2023-05-02T13:22:10;8.85;;;6.30;;
3081;SDS011;1551;51.046;7.010;2023-05-02T13:24:59;12.55;;;6.78;;
3081;SDS011;1551;51.046;7.010;2023-05-02T13:27:48;10.07;;;6.80;;
3081;SDS011;1551;51.046;7.010;2023-05-02T13:30:37;86.73;;;15.03;;
3081;SDS011;1551;51.046;7.010;2023-05-02T13:33:26;9.40;;;7.00;;
3081;SDS011;1551;51.046;7.010;2023-05-02T13:36:15;8.48;;;6.40;;
3081;SDS011;1551;51.046;7.010;2023-05-02T13:39:04;7.57;;;6.32;;
3081;SDS011;1551;51.046;7.010;2023-05-02T13:41:53;10.25;;;6.63;;
3081;SDS011;1551;51.046;7.010;2023-05-02T13:44:42;8.30;;;6.13;;
3081;SDS011;1551;51.046;7.010;2023-05-02T13:47:31;10.00;;;6.50;;
3081;SDS011;1551;51.046;7.010;2023-05-02T13:50:20;8.00;;;5.40;;
3081;SDS011;1551;51.046;7.010;2023-05-02T13:53:09;7.40;;;5.20;;
3081;SDS011;1551;51.046;7.010;2023-05-02T13:55:58;7.18;;;5.32;;
3081;SDS011;1551;51.046;7.010;2023-05-02T13:58:47;7.65;;;5.38;;
3081;SDS011;1551;51.046;7.010;2023-05-02T14:01:36;8.10;;;5.85;;
3081;SDS011;1551;51.046;7.010;2023-05-02T14:04:28;11.80;;;5.95;;
3081;SDS011;1551;51.046;7.010;2023-05-02T14:07:17;6.70;;;5.40;;
3081;SDS011;1551;51.046;7.010;2023-05-02T14:10:06;23.23;;;20.83;;
3081;SDS011;1551;51.046;7.010;2023-05-02T14:12:56;8.57;;;5.80;;
3081;SDS011;1551;51.046;7.010;2023-05-02T14:15:44;6.43;;;5.30;;
3081;SDS011;1551;51.046;7.010;2023-05-02T14:18:34;7.32;;;5.30;;
3081;SDS011;1551;51.046;7.010;2023-05-02T14:21:23;6.80;;;5.15;;
3081;SDS011;1551;51.046;7.010;2023-05-02T14:24:12;9.65;;;5.30;;
3081;SDS011;1551;51.046;7.010;2023-05-02T14:27:03;5.63;;;4.90;;
3081;SDS011;1551;51.046;7.010;2023-05-02T14:29:52;6.75;;;5.05;;
3081;SDS011;1551;51.046;7.010;2023-05-02T14:32:41;7.38;;;5.57;;
3081;SDS011;1551;51.046;7.010;2023-05-02T14:35:30;7.13;;;4.85;;
3081;SDS011;1551;51.046;7.010;2023-05-02T14:38:19;8.25;;;5.13;;
3081;SDS011;1551;51.046;7.010;2023-05-02T14:41:08;6.33;;;5.40;;
3081;SDS011;1551;51.046;7.010;2023-05-02T14:43:57;6.57;;;5.40;;
3081;SDS011;1551;51.046;7.010;2023-05-02T14:46:47;7.75;;;5.00;;
3081;SDS011;1551;51.046;7.010;2023-05-02T14:49:35;7.05;;;5.10;;
3081;SDS011;1551;51.046;7.010;2023-05-02T14:52:24;7.00;;;4.68;;
3081;SDS011;1551;51.046;7.010;2023-05-02T14:55:14;9.00;;;5.18;;
3081;SDS011;1551;51.046;7.010;2023-05-02T14:58:04;6.70;;;5.05;;
3081;SDS011;1551;51.046;7.010;2023-05-02T15:00:55;6.70;;;5.20;;
3081;SDS011;1551;51.046;7.010;2023-05-02T15:03:44;7.90;;;5.00;;
3081;SDS011;1551;51.046;7.010;2023-05-02T15:06:35;8.85;;;4.93;;
3081;SDS011;1551;51.046;7.010;2023-05-02T15:09:24;10.43;;;5.18;;
3081;SDS011;1551;51.046;7.010;2023-05-02T15:12:14;5.57;;;4.57;;
3081;SDS011;1551;51.046;7.010;2023-05-02T15:15:03;10.63;;;4.88;;
3081;SDS011;1551;51.046;7.010;2023-05-02T15:17:52;6.30;;;4.33;;
3081;SDS011;1551;51.046;7.010;2023-05-02T15:20:41;7.53;;;4.50;;
3081;SDS011;1551;51.046;7.010;2023-05-02T15:23:32;6.72;;;4.20;;
3081;SDS011;1551;51.046;7.010;2023-05-02T15:26:21;8.18;;;5.05;;
3081;SDS011;1551;51.046;7.010;2023-05-02T15:29:12;8.20;;;4.30;;
3081;SDS011;1551;51.046;7.010;2023-05-02T15:32:00;7.55;;;4.80;;
3081;SDS011;1551;51.046;7.010;2023-05-02T15:34:49;6.60;;;4.20;;
3081;SDS011;1551;51.046;7.010;2023-05-02T15:37:38;5.82;;;4.80;;
3081;SDS011;1551;51.046;7.010;2023-05-02T15:40:27;7.38;;;4.95;;
3081;SDS011;1551;51.046;7.010;2023-05-02T15:43:16;7.57;;;5.40;;
3081;SDS011;1551;51.046;7.010;2023-05-02T15:46:05;8.50;;;5.28;;
3081;SDS011;1551;51.046;7.010;2023-05-02T15:48:54;5.80;;;4.50;;
3081;SDS011;1551;51.046;7.010;2023-05-02T15:51:43;6.53;;;5.03;;
3081;SDS011;1551;51.046;7.010;2023-05-02T15:54:32;4.90;;;3.90;;
3081;SDS011;1551;51.046;7.010;2023-05-02T15:57:22;7.20;;;4.50;;
3081;SDS011;1551;51.046;7.010;2023-05-02T16:00:11;9.85;;;5.03;;
3081;SDS011;1551;51.046;7.010;2023-05-02T16:03:04;5.57;;;4.93;;
3081;SDS011;1551;51.046;7.010;2023-05-02T16:05:53;6.55;;;5.30;;
3081;SDS011;1551;51.046;7.010;2023-05-02T16:08:42;9.38;;;8.05;;
3081;SDS011;1551;51.046;7.010;2023-05-02T16:11:32;10.60;;;8.70;;
3081;SDS011;1551;51.046;7.010;2023-05-02T16:14:21;5.82;;;4.80;;
3081;SDS011;1551;51.046;7.010;2023-05-02T16:17:11;6.60;;;4.20;;
3081;SDS011;1551;51.046;7.010;2023-05-02T16:20:00;6.10;;;4.60;;
3081;SDS011;1551;51.046;7.010;2023-05-02T16:22:49;6.23;;;4.07;;
3081;SDS011;1551;51.046;7.010;2023-05-02T16:25:39;4.55;;;4.15;;
3081;SDS011;1551;51.046;7.010;2023-05-02T16:28:28;7.53;;;4.18;;
3081;SDS011;1551;51.046;7.010;2023-05-02T16:31:18;5.78;;;4.13;;
3081;SDS011;1551;51.046;7.010;2023-05-02T16:34:07;6.23;;;4.27;;
3081;SDS011;1551;51.046;7.010;2023-05-02T16:36:56;8.73;;;4.55;;
3081;SDS011;1551;51.046;7.010;2023-05-02T16:39:45;8.57;;;4.65;;
3081;SDS011;1551;51.046;7.010;2023-05-02T16:42:34;7.32;;;3.70;;
3081;SDS011;1551;51.046;7.010;2023-05-02T16:45:24;8.05;;;4.20;;
3081;SDS011;1551;51.046;7.010;2023-05-02T16:48:13;5.82;;;3.65;;
3081;SDS011;1551;51.046;7.010;2023-05-02T16:51:02;6.85;;;4.57;;
3081;SDS011;1551;51.046;7.010;2023-05-02T16:53:52;8.20;;;4.20;;
3081;SDS011;1551;51.046;7.010;2023-05-02T16:56:41;9.57;;;5.07;;
3081;SDS011;1551;51.046;7.010;2023-05-02T16:59:29;8.60;;;4.10;;
3081;SDS011;1551;51.046;7.010;2023-05-02T17:02:18;9.18;;;4.43;;
3081;SDS011;1551;51.046;7.010;2023-05-02T17:05:09;9.52;;;4.32;;
3081;SDS011;1551;51.046;7.010;2023-05-02T17:07:58;6.03;;;3.90;;
3081;SDS011;1551;51.046;7.010;2023-05-02T17:10:48;7.88;;;4.00;;
3081;SDS011;1551;51.046;7.010;2023-05-02T17:13:38;6.97;;;4.82;;
3081;SDS011;1551;51.046;7.010;2023-05-02T17:16:26;6.55;;;4.60;;
3081;SDS011;1551;51.046;7.010;2023-05-02T17:19:15;7.20;;;4.35;;
3081;SDS011;1551;51.046;7.010;2023-05-02T17:22:05;7.53;;;4.47;;
3081;SDS011;1551;51.046;7.010;2023-05-02T17:24:54;8.65;;;4.28;;
3081;SDS011;1551;51.046;7.010;2023-05-02T17:27:44;5.88;;;4.20;;
3081;SDS011;1551;51.046;7.010;2023-05-02T17:30:33;8.05;;;4.50;;
3081;SDS011;1551;51.046;7.010;2023-05-02T17:33:21;8.40;;;4.82;;
3081;SDS011;1551;51.046;7.010;2023-05-02T17:36:10;13.40;;;8.48;;
3081;SDS011;1551;51.046;7.010;2023-05-02T17:39:00;8.70;;;4.28;;
3081;SDS011;1551;51.046;7.010;2023-05-02T17:41:49;6.40;;;3.40;;
3081;SDS011;1551;51.046;7.010;2023-05-02T17:44:38;8.70;;;4.90;;
3081;SDS011;1551;51.046;7.010;2023-05-02T17:47:27;7.00;;;4.03;;
3081;SDS011;1551;51.046;7.010;2023-05-02T17:50:16;6.55;;;4.20;;
3081;SDS011;1551;51.046;7.010;2023-05-02T17:53:05;5.00;;;3.70;;
3081;SDS011;1551;51.046;7.010;2023-05-02T17:55:55;6.55;;;4.22;;
3081;SDS011;1551;51.046;7.010;2023-05-02T17:58:44;9.27;;;4.57;;
3081;SDS011;1551;51.046;7.010;2023-05-02T18:01:33;6.63;;;4.38;;
3081;SDS011;1551;51.046;7.010;2023-05-02T18:04:22;6.57;;;4.43;;
3081;SDS011;1551;51.046;7.010;2023-05-02T18:07:12;6.77;;;4.57;;
3081;SDS011;1551;51.046;7.010;2023-05-02T18:10:01;6.60;;;4.72;;